Thursday, September 18, 2014, 1:43 PM EDT

KEZF, Fredericksburg, Shannon Airport

Location: Fredericksburg, VA, United States Lat: 38.267
Local Time: 1:43 PM EDT (17:43 GMT) Lon: -77.45
Time Zone: US/Eastern Elev: 85 ft

Show me the last for .
Show Decoded

2014-09-18 13:35 METAR KEZF 181735Z AUTO 02004KT 10SM -DZ SCT031 SCT041 OVC075 22/17 A3001 RMK
                 AO2 T02210171 =
2014-09-18 13:15 METAR KEZF 181715Z AUTO 00000KT 10SM RA SCT036 SCT047 OVC080 23/17 A3000 RMK AO2
                 T02320167 =
2014-09-18 12:55 METAR KEZF 181655Z AUTO 19005KT 10SM BKN034 BKN047 BKN065 24/16 A3000 RMK AO2
                 T02410161 =
2014-09-18 12:35 METAR KEZF 181635Z AUTO 20007KT 10SM BKN030 BKN041 BKN095 25/16 A3000 RMK AO2
                 T02460163 =
2014-09-18 12:15 METAR KEZF 181615Z AUTO 25003KT 10SM BKN030 BKN034 BKN095 24/16 A3001 RMK AO2
                 T02390164 =
2014-09-18 11:55 METAR KEZF 181555Z AUTO 22004KT 10SM BKN030 BKN042 BKN055 23/16 A3001 RMK AO2
                 T02310156 =
2014-09-18 11:35 METAR KEZF 181535Z AUTO 20003KT 10SM SCT032 SCT041 SCT050 23/15 A3001 RMK AO2
                 T02300154 =
2014-09-18 11:15 METAR KEZF 181515Z AUTO 18005KT 10SM SCT048 SCT055 SCT085 23/15 A3001 RMK AO2
                 T02290151 =
2014-09-18 10:55 METAR KEZF 181455Z AUTO 21006KT 10SM SCT048 SCT055 BKN085 23/15 A3001 RMK AO2
                 T02260150 =
2014-09-18 10:35 METAR KEZF 181435Z AUTO 21008KT 10SM SCT085 22/15 A3001 RMK AO2 T02230151 =
2014-09-18 10:15 METAR KEZF 181415Z AUTO 00000KT 10SM SCT050 SCT085 21/16 A3001 RMK AO2 T02120161
                 =
2014-09-18 09:35 METAR KEZF 181335Z AUTO 00000KT 10SM SCT085 19/16 A3001 RMK AO2 T01880164 =
2014-09-18 09:15 METAR KEZF 181315Z AUTO 00000KT 10SM CLR 18/16 A3001 RMK AO2 T01750160 =
2014-09-18 08:55 METAR KEZF 181255Z AUTO 00000KT 10SM SCT029 SCT085 16/16 A3000 RMK AO2 T01640155
                 =
2014-09-18 08:35 METAR KEZF 181235Z AUTO 00000KT 10SM BKN085 16/15 A3000 RMK AO2 T01590153 =
2014-09-18 08:15 METAR KEZF 181215Z AUTO 00000KT 10SM BKN085 15/15 A3000 RMK AO2 T01540152 =
2014-09-18 07:55 METAR KEZF 181155Z AUTO 00000KT 10SM SCT085 15/15 A3000 RMK AO2 T01460146 10148
                 20135 =
2014-09-18 07:35 METAR KEZF 181135Z AUTO 00000KT 10SM SCT080 15/14 A3000 RMK AO2 T01450144 =
2014-09-18 07:15 METAR KEZF 181115Z AUTO 00000KT 10SM BKN080 15/15 A2999 RMK AO2 T01450145 =
2014-09-18 06:55 METAR KEZF 181055Z AUTO 00000KT 10SM BKN080 14/14 A2999 RMK AO2 T01430143 =
2014-09-18 06:35 METAR KEZF 181035Z AUTO 00000KT 10SM OVC080 15/15 A2998 RMK AO2 T01450145 =
2014-09-18 06:15 METAR KEZF 181015Z AUTO 00000KT 10SM SCT036 OVC080 15/15 A2998 RMK AO2 T01450145
                 =
2014-09-18 05:55 METAR KEZF 180955Z AUTO 00000KT 10SM SCT036 OVC080 14/14 A2998 RMK AO2 T01430143
                 =
2014-09-18 05:35 METAR KEZF 180935Z AUTO 00000KT 10SM BKN080 14/14 A2998 RMK AO2 T01430143 =
2014-09-18 05:15 METAR KEZF 180915Z AUTO 00000KT 10SM CLR 15/15 A2997 RMK AO2 T01450145 =
2014-09-18 04:50 METAR KEZF 180850Z AUTO 00000KT 10SM SCT037 BKN049 OVC075 15/15 A2997 RMK AO2
                 T01470145 =
2014-09-18 04:35 METAR KEZF 180835Z AUTO 00000KT 10SM SCT037 BKN060 OVC075 15/15 A2997 RMK AO2
                 T01460145 =
2014-09-18 04:15 METAR KEZF 180815Z AUTO 00000KT 10SM SCT039 SCT048 BKN055 15/14 A2997 RMK AO2
                 T01460143 =
2014-09-18 03:55 METAR KEZF 180755Z AUTO 00000KT 10SM SCT041 SCT048 OVC055 15/14 A2996 RMK AO2
                 T01450142 =
2014-09-18 03:35 METAR KEZF 180735Z AUTO 00000KT 10SM OVC055 14/14 A2996 RMK AO2 T01430140 =
2014-09-18 03:15 METAR KEZF 180715Z AUTO 00000KT 10SM OVC055 14/14 A2996 RMK AO2 T01420140 =
2014-09-18 02:35 METAR KEZF 180635Z AUTO 00000KT 10SM OVC075 14/14 A2996 RMK AO2 T01420141 =
2014-09-18 02:15 METAR KEZF 180615Z AUTO 00000KT 10SM OVC075 14/14 A2996 RMK AO2 T01390139 =
2014-09-18 01:55 METAR KEZF 180555Z AUTO 00000KT 10SM BKN075 14/14 A2996 RMK AO2 T01360136 10180
                 20135 402560122 =
2014-09-18 01:35 METAR KEZF 180535Z AUTO 00000KT 10SM CLR 14/14 A2996 RMK AO2 T01350135 =
2014-09-18 01:15 METAR KEZF 180515Z AUTO 00000KT 10SM CLR 14/14 A2997 RMK AO2 T01370137 =
2014-09-18 00:55 METAR KEZF 180455Z AUTO 00000KT 10SM CLR 14/14 A2996 RMK AO2 T01390138 =
2014-09-18 00:35 METAR KEZF 180435Z AUTO 00000KT 10SM CLR 14/14 A2996 RMK AO2 T01400138 =
2014-09-18 00:15 METAR KEZF 180415Z AUTO 00000KT 10SM CLR 14/14 A2997 RMK AO2 T01420140 =
2014-09-17 23:55 METAR KEZF 180355Z AUTO 00000KT 10SM CLR 14/14 A2997 RMK AO2 T01430137 =
2014-09-17 23:35 METAR KEZF 180335Z AUTO 00000KT 10SM CLR 15/14 A2997 RMK AO2 T01470141 =
2014-09-17 23:15 METAR KEZF 180315Z AUTO 00000KT 10SM CLR 15/14 A2997 RMK AO2 T01500135 =
2014-09-17 22:55 METAR KEZF 180255Z AUTO 00000KT 10SM CLR 15/13 A2997 RMK AO2 T01500129 =
2014-09-17 22:35 METAR KEZF 180235Z AUTO 00000KT 10SM CLR 16/13 A2997 RMK AO2 T01570129 =
2014-09-17 22:15 METAR KEZF 180215Z AUTO 00000KT 10SM CLR 16/14 A2998 RMK AO2 T01620136 =
2014-09-17 21:55 METAR KEZF 180155Z AUTO 05003KT 10SM CLR 16/13 A2997 RMK AO2 T01580132 =
2014-09-17 21:35 METAR KEZF 180135Z AUTO 16006KT 10SM CLR 16/13 A2996 RMK AO2 T01550130 =
2014-09-17 21:15 METAR KEZF 180115Z AUTO 00000KT 10SM CLR 16/13 A2997 RMK AO2 T01600131 =
2014-09-17 20:55 METAR KEZF 180055Z AUTO 00000KT 10SM CLR 16/13 A2996 RMK AO2 T01610131 =
2014-09-17 20:35 METAR KEZF 180035Z AUTO 00000KT 10SM CLR 17/14 A2996 RMK AO2 T01700135 =
2014-09-17 20:15 METAR KEZF 180015Z AUTO 00000KT 10SM CLR 18/14 A2996 RMK AO2 T01750137 =
2014-09-17 19:55 METAR KEZF 172355Z AUTO 00000KT 10SM SCT080 18/14 A2995 RMK AO2 T01800139 10256
                 20180 =
2014-09-17 19:35 METAR KEZF 172335Z AUTO 00000KT 10SM SCT080 19/15 A2995 RMK AO2 T01900145 =
2014-09-17 19:15 METAR KEZF 172315Z AUTO 00000KT 10SM SCT080 20/14 A2995 RMK AO2 T02040141 =
2014-09-17 18:55 METAR KEZF 172255Z AUTO 00000KT 10SM SCT080 22/14 A2995 RMK AO2 T02160138 =
2014-09-17 18:35 METAR KEZF 172235Z AUTO 09003KT 10SM SCT055 SCT065 SCT080 23/12 A2995 RMK AO2
                 T02260122 =
2014-09-17 18:15 METAR KEZF 172215Z AUTO 06004KT 10SM OVC055 23/12 A2996 RMK AO2 T02300120 =
2014-09-17 17:55 METAR KEZF 172155Z AUTO 07004KT 10SM SCT065 BKN075 24/12 A2996 RMK AO2 T02370115
                 =
2014-09-17 17:15 METAR KEZF 172115Z AUTO 00000KT 10SM SCT075 24/11 A2996 RMK AO2 T02440112 =
2014-09-17 16:55 METAR KEZF 172055Z AUTO 00000KT 10SM SCT075 24/11 A2996 RMK AO2 T02380109 =
2014-09-17 16:35 METAR KEZF 172035Z AUTO 06003KT 10SM SCT060 BKN075 25/11 A2996 RMK AO2 T02510113
                 =
2014-09-17 16:15 METAR KEZF 172015Z AUTO 06005KT 10SM BKN060 BKN075 24/11 A2996 RMK AO2 T02400111
                 =
2014-09-17 15:55 METAR KEZF 171955Z AUTO 00000KT 10SM BKN060 OVC070 24/11 A2996 RMK AO2 T02420106
                 =
2014-09-17 15:35 METAR KEZF 171935Z AUTO 00000KT 10SM BKN070 24/11 A2996 RMK AO2 T02400107 =
2014-09-17 15:15 METAR KEZF 171915Z AUTO 12005KT 10SM SCT050 SCT070 25/11 A2996 RMK AO2 T02470106
                 =
2014-09-17 14:55 METAR KEZF 171855Z AUTO 00000KT 10SM SCT050 SCT060 BKN075 25/11 A2996 RMK AO2
                 T02510106 =
2014-09-17 14:35 METAR KEZF 171835Z AUTO 00000KT 10SM BKN055 OVC070 24/11 A2997 RMK AO2 T02430111
                 =
2014-09-17 14:15 METAR KEZF 171815Z AUTO 07003KT 10SM OVC055 24/11 A2998 RMK AO2 T02360110 =
2014-09-17 13:55 METAR KEZF 171755Z AUTO 09005KT 10SM BKN050 24/11 A2999 RMK AO2 T02380105 10252
                 20151 =

Support USWX by starting your Amazon purchase here.